Pirtle, Texas
Current Conditions -  °F | °C
As of 10:15 AM on Thursday 29 Jan 2015 (Local Time) from KRFI Reporting Station
Clear Clear  
Wind Chill: 62°   Ceiling: Unl
Heat Index: 62°   Visibility: 10mi
Dew Point: 55°   Wind: 8mph
Humidity: 78%   Direction: 280°W
Pressure: 30.24"   Gusts: NA
Location:  32.2818°N, 94.951°W
Report Text: KRFI 291615Z AUTO 28007KT 10SM CLR 17/13 A3024 RMK AO2 T01690130
Loading
Personal Weather Stations






























Interactive Weather Map New forecast layout! Learn more

10-Day Weather Forecast

Advertisements
Track Severe Weather on mobile